Time;durP1;ratioP1;P1;durP2;ratioP2;P2;SDS_P1;SDS_P2;PMS_P1;PMS_P2;Temp;Humidity;BMP_temperature;BMP_pressure;BME280_temperature;BME280_humidity;BME280_pressure;Samples;Min_cycle;Max_cycle;Signal;HPM_P1;HPM_P2
2022/01/11 21:54:55;;;;;;;16.38;8.52;;;;;;;-2.94;100.00;96598.47;5025046;28;20419;-64
2022/01/11 21:57:23;;;;;;;19.13;10.75;;;;;;;-2.86;100.00;96607.41;5024942;28;20175;-67
2022/01/11 21:59:48;;;;;;;25.02;11.63;;;;;;;-2.79;100.00;96598.00;5007283;28;20459;-65
2022/01/11 22:02:14;;;;;;;20.73;10.77;;;;;;;-2.71;100.00;96590.25;5024808;28;20079;-65
2022/01/11 22:04:39;;;;;;;20.33;10.77;;;;;;;-2.56;100.00;96590.56;5023677;28;20145;-65
2022/01/11 22:07:05;;;;;;;21.50;11.25;;;;;;;-2.52;100.00;96584.88;5019160;28;20143;-65
2022/01/11 22:09:33;;;;;;;15.77;9.85;;;;;;;-2.47;100.00;96572.16;4994640;28;20537;-65
2022/01/11 22:12:00;;;;;;;14.82;8.80;;;;;;;-2.41;100.00;96568.09;5004886;28;20701;-64
2022/01/11 22:14:43;;;;;;;15.60;8.75;;;;;;;-2.41;100.00;96560.22;5004773;28;20034;-65
2022/01/11 22:19:50;;;;;;;14.65;9.07;;;;;;;-2.46;100.00;96559.88;5004847;28;20053;-64
2022/01/11 22:22:16;;;;;;;17.95;8.55;;;;;;;-2.48;100.00;96567.06;5004745;28;20418;-64
2022/01/11 22:24:42;;;;;;;16.08;9.18;;;;;;;-2.51;100.00;96555.03;5004548;28;20034;-64
2022/01/11 22:27:08;;;;;;;16.25;8.93;;;;;;;-2.50;100.00;96553.25;5004756;28;20034;-65
2022/01/11 22:29:33;;;;;;;14.35;8.15;;;;;;;-2.51;100.00;96557.66;5004934;28;20525;-64
2022/01/11 22:31:59;;;;;;;12.77;8.02;;;;;;;-2.51;100.00;96543.72;5004689;28;20022;-64
2022/01/11 22:34:25;;;;;;;14.73;8.73;;;;;;;-2.59;100.00;96554.16;5004560;28;20053;-64
2022/01/11 22:36:55;;;;;;;13.57;7.88;;;;;;;-2.64;100.00;96536.22;5004834;28;20486;-64
2022/01/11 22:39:21;;;;;;;15.07;7.75;;;;;;;-2.66;100.00;96536.38;5004798;28;20712;-65
2022/01/11 22:41:46;;;;;;;15.10;8.05;;;;;;;-2.69;100.00;96541.91;5003007;28;20022;-64
2022/01/11 22:44:12;;;;;;;12.50;7.50;;;;;;;-2.77;100.00;96539.19;5003172;28;20072;-64
2022/01/11 22:46:37;;;;;;;13.63;7.93;;;;;;;-2.87;100.00;96540.22;5004431;28;20492;-64
2022/01/11 22:49:06;;;;;;;21.17;9.32;;;;;;;-2.96;100.00;96536.66;5003117;28;20034;-64
2022/01/11 22:51:33;;;;;;;14.45;8.02;;;;;;;-3.01;100.00;96533.66;5004101;28;20034;-65
2022/01/11 22:53:59;;;;;;;12.65;7.50;;;;;;;-3.04;100.00;96542.66;5005016;28;20043;-64
2022/01/11 22:56:24;;;;;;;13.38;8.02;;;;;;;-3.06;100.00;96546.38;5023925;28;20083;-64
2022/01/11 22:58:50;;;;;;;12.63;7.75;;;;;;;-3.03;100.00;96541.69;5023944;28;20112;-64
2022/01/11 23:01:17;;;;;;;18.75;7.95;;;;;;;-3.02;100.00;96547.75;5023708;28;20025;-65
2022/01/11 23:03:44;;;;;;;14.68;7.97;;;;;;;-2.99;100.00;96535.16;5023429;28;20448;-65
2022/01/11 23:06:10;;;;;;;12.65;7.60;;;;;;;-2.94;100.00;96532.94;5010097;28;20029;-64
2022/01/11 23:08:38;;;;;;;17.27;8.27;;;;;;;-2.85;100.00;96530.41;4982807;28;20029;-64
2022/01/11 23:11:04;;;;;;;14.35;7.70;;;;;;;-2.83;100.00;96524.03;4989690;28;20034;-65
2022/01/11 23:16:11;;;;;;;13.88;7.68;;;;;;;-2.72;100.00;96518.59;4991351;28;20041;-64
2022/01/11 23:18:37;;;;;;;13.63;7.90;;;;;;;-2.71;100.00;96509.78;4989865;28;20045;-64
2022/01/11 23:21:04;;;;;;;13.25;7.85;;;;;;;-2.69;100.00;96509.63;4991034;28;20026;-64
2022/01/11 23:23:32;;;;;;;12.63;7.65;;;;;;;-2.67;100.00;96508.50;4989646;28;20034;-64
2022/01/11 23:25:58;;;;;;;12.32;7.63;;;;;;;-2.63;100.00;96501.97;4991008;28;20061;-65
2022/01/11 23:28:23;;;;;;;13.90;8.00;;;;;;;-2.62;100.00;96502.78;4990917;28;20037;-62
2022/01/11 23:30:49;;;;;;;13.65;7.78;;;;;;;-2.60;100.00;96514.00;4991106;28;20601;-62
2022/01/11 23:33:18;;;;;;;15.57;8.48;;;;;;;-2.57;100.00;96505.81;4989333;28;20054;-64
2022/01/11 23:35:48;;;;;;;12.10;7.05;;;;;;;-2.54;100.00;96508.13;4989567;28;20037;-64
2022/01/11 23:38:31;;;;;;;13.95;8.10;;;;;;;-2.48;100.00;96504.09;4989579;28;20030;-64
2022/01/11 23:41:09;;;;;;;;;;;;;;;-2.40;100.00;96509.41;4990019;28;20029;-64
2022/01/11 23:46:20;;;;;;;10.85;7.00;;;;;;;-2.31;100.00;96507.69;4990555;28;20029;-64
2022/01/11 23:48:55;;;;;;;11.63;6.85;;;;;;;-2.28;100.00;96505.59;4990672;28;20034;-61
2022/01/11 23:51:26;;;;;;;15.25;7.45;;;;;;;-2.25;100.00;96510.56;4990407;28;20083;-62
2022/01/11 23:53:53;;;;;;;12.85;7.82;;;;;;;-2.21;100.00;96504.00;4990191;28;20047;-63
2022/01/11 23:56:24;;;;;;;12.13;7.53;;;;;;;-2.16;100.00;96500.94;4989292;28;20030;-64
2022/01/11 23:58:49;;;;;;;12.05;7.05;;;;;;;-2.13;100.00;96506.72;4990567;28;20536;-63
